Terminal Aerodrome Forecast
Issued by NWS

Home | Current Version | Previous Version | Text Only | Print | Product List | Glossary On
Versions: 1 2 3 4 5 6 7 8 9 10 11 12 13 14 15 16 17 18 19 20 21 22 23 24 25 26
000
FTUS45 KLKN 021120
TAFELY
TAF
KELY 021120Z 0212/0312 18006KT P6SM VCSH SCT120 BKN200
     FM021900 36008KT P6SM VCTS BKN090CB OVC150
     FM030400 18008KT P6SM FEW100 SCT200=

USA.gov is the U.S. government's official web portal to all federal, state and local government web resources and services.